createdAt,value
2023-05-17T00:00:31.305Z,88.57
2023-05-17T00:01:31.300Z,88.89
2023-05-17T00:02:31.371Z,88.78
2023-05-17T00:03:31.285Z,88.68
2023-05-17T00:04:31.344Z,89.23
2023-05-17T00:05:31.361Z,89.85
2023-05-17T00:06:31.265Z,89.95
2023-05-17T00:07:31.241Z,89.95
2023-05-17T00:08:31.229Z,89.75
2023-05-17T00:09:31.231Z,89.95
2023-05-17T00:10:31.211Z,89.75
2023-05-17T00:11:31.179Z,89.58
2023-05-17T00:12:31.184Z,89.89
2023-05-17T00:13:31.230Z,90.00
2023-05-17T00:14:31.162Z,90.00
2023-05-17T00:15:31.150Z,89.79
2023-05-17T00:16:31.130Z,89.58
2023-05-17T00:17:31.202Z,89.69
2023-05-17T00:18:31.245Z,89.58
2023-05-17T00:19:31.129Z,89.52
2023-05-17T00:20:31.133Z,89.73
2023-05-17T00:21:31.059Z,90.14
2023-05-17T00:22:31.077Z,90.66
2023-05-17T00:23:31.044Z,91.38
2023-05-17T00:24:31.058Z,91.17
2023-05-17T00:25:31.278Z,91.17
2023-05-17T00:26:31.027Z,91.06
2023-05-17T00:27:31.013Z,90.75
2023-05-17T00:28:31.006Z,90.59
2023-05-17T00:29:31.004Z,90.80
2023-05-17T00:30:30.976Z,90.59
2023-05-17T00:31:30.977Z,90.49
2023-05-17T00:32:31.029Z,90.69
2023-05-17T00:33:30.952Z,91.83
2023-05-17T00:34:30.973Z,92.24
2023-05-17T00:35:31.031Z,92.24
2023-05-17T00:36:30.939Z,92.44
2023-05-17T00:37:30.903Z,92.65
2023-05-17T00:38:30.969Z,92.55
2023-05-17T00:39:30.899Z,92.18
2023-05-17T00:40:30.962Z,91.77
2023-05-17T00:41:30.863Z,92.18
2023-05-17T00:42:30.854Z,92.49
2023-05-17T00:43:30.858Z,92.69
2023-05-17T00:44:30.849Z,92.69
2023-05-17T00:45:30.803Z,92.59
2023-05-17T00:46:30.804Z,92.53
2023-05-17T00:47:30.825Z,92.53
2023-05-17T00:48:31.041Z,92.94
2023-05-17T00:49:30.779Z,93.46
2023-05-17T00:50:30.774Z,93.56
2023-05-17T00:51:30.756Z,93.35
2023-05-17T00:52:30.729Z,93.15
2023-05-17T00:53:30.733Z,93.25
2023-05-17T00:54:30.718Z,93.05
2023-05-17T00:55:30.857Z,93.46
2023-05-17T00:56:30.717Z,93.35
2023-05-17T05:30:46.974Z,98.03
2023-05-17T05:31:46.494Z,98.03
2023-05-17T05:32:46.621Z,97.92
2023-05-17T05:33:46.515Z,97.72
2023-05-17T05:34:46.455Z,97.62
2023-05-17T05:35:46.454Z,97.52
2023-05-17T05:36:46.436Z,97.57
2023-05-17T05:37:46.464Z,97.67
2023-05-17T05:38:46.502Z,97.57
2023-05-17T05:39:46.444Z,97.57
2023-05-17T05:40:46.387Z,97.47
2023-05-17T05:41:46.397Z,97.27
2023-05-17T05:42:46.367Z,97.22
2023-05-17T05:43:46.358Z,97.12
2023-05-17T05:44:46.355Z,97.12
2023-05-17T05:45:46.338Z,97.02
2023-05-17T05:46:47.285Z,96.70
2023-05-17T05:47:46.427Z,96.40
2023-05-17T05:48:46.321Z,96.30
2023-05-17T05:49:46.308Z,96.30
2023-05-17T05:50:46.320Z,96.40
2023-05-17T05:51:46.309Z,96.30
2023-05-17T05:52:46.267Z,96.35
2023-05-17T05:53:46.265Z,96.35
2023-05-17T05:54:46.450Z,96.45
2023-05-17T05:55:46.274Z,96.56
2023-05-17T05:56:46.220Z,96.45
2023-05-17T05:57:46.215Z,96.20
2023-05-17T05:58:46.245Z,96.10
2023-05-17T05:59:46.188Z,95.69
2023-05-17T06:00:46.184Z,95.79
2023-05-17T06:01:46.180Z,95.79
2023-05-17T06:02:46.254Z,95.69
2023-05-17T06:03:46.155Z,95.59
2023-05-17T06:04:46.205Z,95.49
2023-05-17T06:05:46.251Z,95.59
2023-05-17T06:06:46.254Z,95.59
2023-05-17T06:07:46.114Z,95.49
2023-05-17T06:08:46.101Z,95.39
2023-05-17T06:09:46.103Z,95.59
2023-05-17T06:10:46.071Z,95.59
2023-05-17T06:11:46.068Z,95.90
2023-05-17T06:12:46.060Z,95.69
2023-05-17T06:13:46.045Z,95.69
2023-05-17T06:14:46.090Z,95.49
2023-05-17T06:15:46.030Z,95.53
2023-05-17T06:16:46.011Z,95.43
2023-05-17T06:17:46.098Z,95.43
2023-05-17T06:18:47.923Z,95.64
2023-05-17T06:19:46.016Z,95.94
2023-05-17T06:20:45.984Z,96.15
2023-05-17T06:21:45.993Z,96.25
2023-05-17T06:22:45.949Z,96.35
2023-05-17T06:23:46.030Z,96.56
2023-05-17T06:24:45.931Z,96.56
2023-05-17T06:25:45.913Z,96.62
2023-05-17T06:26:45.910Z,96.72
2023-05-17T06:27:45.893Z,96.92
2023-05-17T06:28:45.951Z,97.17
2023-05-17T06:29:45.934Z,97.28
2023-05-17T06:30:45.854Z,97.23
2023-05-17T06:31:45.849Z,97.23
2023-05-17T06:32:45.842Z,97.23
2023-05-17T06:33:45.888Z,97.33
2023-05-17T06:34:45.809Z,97.58
2023-05-17T06:35:55.330Z,97.48
2023-05-17T06:36:46.781Z,97.58
2023-05-17T06:37:45.798Z,97.79
2023-05-17T06:38:45.790Z,97.89
2023-05-17T06:39:55.477Z,97.89
2023-05-17T06:40:46.758Z,97.99
2023-05-17T06:41:45.740Z,97.99
2023-05-17T06:42:45.736Z,98.10
2023-05-17T06:43:45.726Z,97.99
2023-05-17T06:44:45.699Z,98.10
2023-05-17T06:45:45.763Z,98.20
2023-05-17T06:46:45.747Z,98.30
2023-05-17T06:47:45.765Z,98.16
2023-05-17T06:48:47.427Z,98.16
2023-05-17T06:49:45.714Z,98.05
2023-05-17T06:50:45.656Z,98.05
2023-05-17T06:51:45.680Z,97.54
2023-05-17T06:52:45.630Z,97.23
2023-05-17T06:53:45.611Z,97.08
2023-05-17T06:54:45.615Z,97.19
2023-05-17T06:55:45.593Z,97.24
2023-05-17T06:56:45.633Z,96.22
2023-05-17T06:57:45.585Z,94.78
2023-05-17T06:58:45.548Z,94.48
2023-05-17T06:59:49.472Z,94.48
2023-05-17T07:00:45.532Z,94.78
2023-05-17T07:01:45.521Z,95.09
2023-05-17T07:02:45.637Z,94.64
2023-05-17T07:03:45.671Z,94.43
2023-05-17T07:04:45.653Z,94.02
2023-05-17T07:05:45.484Z,94.33
2023-05-17T07:06:45.454Z,93.82
2023-05-17T07:07:45.453Z,93.62
2023-05-17T07:08:45.447Z,93.98
2023-05-17T07:09:45.444Z,92.96
2023-05-17T07:10:45.436Z,92.85
2023-05-17T07:11:45.416Z,92.19
2023-05-17T07:12:45.420Z,90.56
2023-05-17T07:13:46.781Z,89.53
2023-05-17T07:14:45.395Z,88.62
2023-05-17T07:15:45.432Z,89.33
2023-05-17T07:16:45.356Z,88.62
2023-05-17T07:17:45.443Z,86.77
2023-05-17T07:18:45.437Z,86.98
2023-05-17T07:19:46.382Z,88.68
2023-05-17T07:20:45.423Z,89.50
2023-05-17T07:21:45.344Z,86.83
2023-05-17T07:22:45.295Z,85.30
2023-05-17T07:23:45.281Z,83.97
2023-05-17T07:24:45.274Z,83.76
2023-05-17T07:25:45.265Z,84.89
2023-05-17T07:26:45.251Z,84.48
2023-05-17T07:27:45.238Z,84.79
2023-05-17T07:28:45.265Z,84.65
2023-05-17T07:29:45.225Z,84.95
2023-05-17T07:30:45.216Z,86.08
2023-05-17T07:31:45.198Z,85.88
2023-05-17T07:32:45.209Z,83.93
2023-05-17T07:33:45.219Z,83.18
2023-05-17T07:34:45.362Z,83.69
2023-05-17T07:35:45.157Z,82.97
2023-05-17T07:36:45.150Z,80.21
2023-05-17T07:37:45.129Z,80.62
2023-05-17T07:38:45.129Z,79.39
2023-05-17T07:39:45.125Z,80.83
2023-05-17T07:40:45.094Z,80.01
2023-05-17T07:41:45.088Z,79.80
2023-05-17T07:42:45.074Z,80.21
2023-05-17T07:43:45.083Z,80.21
2023-05-17T07:44:45.058Z,80.32
2023-05-17T07:45:45.043Z,79.66
2023-05-17T07:46:45.065Z,78.48
2023-05-17T07:47:45.102Z,77.76
2023-05-17T07:48:45.092Z,76.23
2023-05-17T07:49:45.007Z,77.86
2023-05-17T07:50:44.988Z,75.65
2023-05-17T07:51:44.993Z,75.51
2023-05-17T07:52:44.974Z,74.96
2023-05-17T07:53:44.954Z,73.81
2023-05-17T07:54:44.946Z,72.92
2023-05-17T07:55:47.069Z,72.79
2023-05-17T07:56:44.969Z,72.69
2023-05-17T07:57:44.924Z,73.10
2023-05-17T07:58:44.914Z,71.91
2023-05-17T07:59:44.946Z,71.80
2023-05-17T08:00:44.877Z,72.00
2023-05-17T08:01:44.888Z,72.62
2023-05-17T08:02:44.958Z,72.55
2023-05-17T08:03:44.849Z,72.55
2023-05-17T08:04:44.862Z,73.06
2023-05-17T08:05:44.990Z,73.16
2023-05-17T08:06:44.896Z,72.24
2023-05-17T08:07:44.822Z,73.67
2023-05-17T08:08:44.790Z,72.92
2023-05-17T08:09:44.781Z,71.50
2023-05-17T08:10:44.764Z,72.48
2023-05-17T08:11:44.788Z,70.54
2023-05-17T08:12:44.754Z,71.77
2023-05-17T08:13:44.741Z,70.98
2023-05-17T08:14:44.723Z,71.29
2023-05-17T08:15:44.750Z,73.23
2023-05-17T08:16:44.717Z,73.19
2023-05-17T08:17:45.001Z,74.28
2023-05-17T08:18:44.776Z,72.82
2023-05-17T08:19:44.863Z,71.91
2023-05-17T08:20:44.684Z,70.48
2023-05-17T08:21:44.655Z,68.92
2023-05-17T08:22:44.645Z,68.75
2023-05-17T08:23:45.582Z,69.87
2023-05-17T08:24:44.644Z,69.09
2023-05-17T08:25:44.625Z,70.34
2023-05-17T08:26:44.616Z,69.93
2023-05-17T08:27:44.691Z,71.46
2023-05-17T08:28:44.576Z,70.10
2023-05-17T08:29:44.594Z,69.15
2023-05-17T08:30:44.563Z,68.21
2023-05-17T08:31:44.551Z,67.63
2023-05-17T08:32:44.577Z,68.52
2023-05-17T08:33:44.659Z,68.08
2023-05-17T08:34:44.541Z,68.22
2023-05-17T08:35:44.495Z,64.26
2023-05-17T08:36:44.584Z,63.85
2023-05-17T08:37:44.477Z,62.87
2023-05-17T08:38:44.486Z,62.36
2023-05-17T08:39:44.523Z,64.52
2023-05-17T08:40:44.462Z,65.64
2023-05-17T08:41:44.432Z,66.60
2023-05-17T08:42:44.425Z,63.65
2023-05-17T08:43:44.437Z,63.85
2023-05-17T08:44:44.411Z,64.79
2023-05-17T08:45:44.390Z,65.13
2023-05-17T08:46:44.395Z,62.55
2023-05-17T08:47:44.408Z,63.90
2023-05-17T08:48:44.386Z,63.93
2023-05-17T08:49:46.406Z,63.83
2023-05-17T08:50:44.473Z,65.39
2023-05-17T08:51:44.317Z,64.78
2023-05-17T08:52:44.338Z,62.63
2023-05-17T08:53:44.352Z,63.70
2023-05-17T08:54:44.291Z,63.26
2023-05-17T08:55:44.281Z,60.36
2023-05-17T08:56:44.286Z,61.75
2023-05-17T08:57:44.254Z,59.59
2023-05-17T08:58:55.485Z,61.32
2023-05-17T08:59:45.251Z,59.99
2023-05-17T09:00:44.227Z,59.56
2023-05-17T09:01:44.215Z,59.79
2023-05-17T09:02:44.261Z,61.44
2023-05-17T09:03:44.247Z,61.44
2023-05-17T09:04:44.336Z,61.78
2023-05-17T09:05:44.193Z,60.92
2023-05-17T09:06:44.169Z,62.27
2023-05-17T09:07:44.178Z,59.86
2023-05-17T09:08:44.154Z,61.00
2023-05-17T09:09:44.123Z,61.31
2023-05-17T09:10:44.130Z,60.03
2023-05-17T09:11:44.122Z,60.28
2023-05-17T09:12:44.108Z,59.64
2023-05-17T09:13:44.087Z,59.92
2023-05-17T09:14:44.082Z,60.40
2023-05-17T09:15:44.062Z,59.36
2023-05-17T09:16:44.083Z,58.47
2023-05-17T09:17:44.130Z,56.13
2023-05-17T09:18:44.150Z,56.19
2023-05-17T09:19:44.062Z,57.23
2023-05-17T09:20:44.012Z,57.64
2023-05-17T09:21:44.002Z,56.85
2023-05-17T09:22:44.001Z,57.39
2023-05-17T09:23:51.427Z,56.98
2023-05-17T09:24:44.980Z,57.77
2023-05-17T09:25:43.959Z,58.89
2023-05-17T09:26:43.993Z,57.08
2023-05-17T09:27:43.933Z,57.72
2023-05-17T09:28:43.941Z,58.00
2023-05-17T09:29:43.912Z,58.04
2023-05-17T09:30:43.924Z,57.21
2023-05-17T09:31:43.890Z,56.06
2023-05-17T09:32:43.913Z,55.63
2023-05-17T09:33:43.922Z,54.82
2023-05-17T09:34:43.866Z,54.99
2023-05-17T09:35:43.930Z,54.90
2023-05-17T09:36:43.862Z,56.21
2023-05-17T09:37:43.901Z,55.17
2023-05-17T09:38:43.823Z,53.96
2023-05-17T09:39:43.823Z,53.47
2023-05-17T09:40:43.809Z,53.91
2023-05-17T09:41:43.796Z,54.64
2023-05-17T09:42:43.771Z,56.82
2023-05-17T09:43:43.780Z,56.04
2023-05-17T09:44:43.755Z,56.45
2023-05-17T09:45:43.749Z,56.32
2023-05-17T09:46:43.736Z,56.52
2023-05-17T09:47:43.754Z,58.15
2023-05-17T09:48:43.770Z,57.43
2023-05-17T09:49:43.712Z,57.13
2023-05-17T09:50:43.697Z,59.37
2023-05-17T09:51:43.689Z,58.96
2023-05-17T09:52:43.670Z,57.77
2023-05-17T09:53:43.672Z,58.00
2023-05-17T09:54:43.654Z,59.93
2023-05-17T09:55:43.636Z,60.82
2023-05-17T09:56:43.631Z,57.54
2023-05-17T09:57:43.618Z,56.62
2023-05-17T09:58:43.669Z,57.89
2023-05-17T09:59:43.608Z,58.06
2023-05-17T10:00:43.603Z,58.52
2023-05-17T10:01:43.622Z,54.97
2023-05-17T10:02:43.769Z,55.35
2023-05-17T10:03:43.589Z,54.94
2023-05-17T10:04:43.594Z,54.74
2023-05-17T10:05:43.539Z,54.61
2023-05-17T10:06:48.033Z,56.92
2023-05-17T10:07:44.528Z,54.99
2023-05-17T10:08:43.520Z,53.47
2023-05-17T10:09:43.492Z,53.27
2023-05-17T10:10:43.502Z,52.08
2023-05-17T10:11:43.487Z,53.58
2023-05-17T10:12:43.462Z,55.80
2023-05-17T10:13:43.451Z,54.18
2023-05-17T10:14:43.487Z,53.17
2023-05-17T10:15:43.436Z,53.45
2023-05-17T10:16:43.423Z,54.08
2023-05-17T10:17:45.408Z,52.84
2023-05-17T10:18:43.569Z,52.84
2023-05-17T10:19:43.692Z,53.52
2023-05-17T10:20:43.391Z,53.09
2023-05-17T10:21:43.366Z,51.30
2023-05-17T10:22:43.462Z,52.31
2023-05-17T10:23:43.362Z,53.90
2023-05-17T10:24:43.327Z,52.61
2023-05-17T10:25:43.332Z,52.36
2023-05-17T10:26:43.342Z,53.42
2023-05-17T10:27:43.301Z,53.98
2023-05-17T10:28:43.290Z,53.60
2023-05-17T10:29:43.290Z,54.44
2023-05-17T10:30:43.267Z,54.61
2023-05-17T10:31:43.284Z,55.71
2023-05-17T10:32:43.337Z,53.32
2023-05-17T10:33:43.371Z,53.83
2023-05-17T10:34:43.546Z,51.75
2023-05-17T10:35:43.233Z,52.64
2023-05-17T10:36:43.222Z,51.93
2023-05-17T10:37:43.202Z,52.33
2023-05-17T10:38:43.342Z,49.65
2023-05-17T10:39:43.177Z,50.18
2023-05-17T10:40:43.174Z,50.76
2023-05-17T10:41:43.174Z,49.75
2023-05-17T10:42:43.140Z,50.28
2023-05-17T10:43:43.144Z,50.00
2023-05-17T10:44:43.128Z,52.41
2023-05-17T10:45:43.127Z,51.35
2023-05-17T10:46:43.111Z,51.14
2023-05-17T10:47:43.204Z,51.53
2023-05-17T10:48:43.110Z,50.41
2023-05-17T10:49:43.074Z,50.71
2023-05-17T10:50:50.598Z,51.73
2023-05-17T10:51:44.050Z,51.68
2023-05-17T10:52:43.042Z,50.74
2023-05-17T10:53:43.030Z,48.22
2023-05-17T10:54:43.023Z,48.22
2023-05-17T10:55:43.060Z,48.06
2023-05-17T10:56:42.999Z,50.89
2023-05-17T10:57:51.037Z,51.32
2023-05-17T10:58:43.967Z,51.12
2023-05-17T10:59:43.007Z,51.02
2023-05-17T11:00:42.937Z,51.12
2023-05-17T11:01:42.961Z,51.25
2023-05-17T11:02:42.984Z,51.86
2023-05-17T11:03:42.921Z,51.42
2023-05-17T11:04:43.051Z,51.53
2023-05-17T11:05:42.936Z,53.37
2023-05-17T11:06:42.952Z,51.98
2023-05-17T11:07:42.891Z,52.26
2023-05-17T11:08:42.874Z,53.14
2023-05-17T11:09:42.879Z,49.50
2023-05-17T11:10:42.850Z,49.27
2023-05-17T11:11:42.852Z,49.27
2023-05-17T11:12:42.822Z,48.57
2023-05-17T11:13:42.876Z,49.80
2023-05-17T11:14:42.816Z,51.02
2023-05-17T11:15:42.823Z,49.80
2023-05-17T11:16:42.801Z,49.78
2023-05-17T11:17:42.822Z,49.68
2023-05-17T11:18:43.018Z,49.58
2023-05-17T11:19:42.883Z,48.57
2023-05-17T11:20:42.918Z,48.69
2023-05-17T11:21:42.755Z,49.90
2023-05-17T11:22:42.744Z,50.79
2023-05-17T11:23:42.728Z,48.99
2023-05-17T11:24:42.697Z,48.99
2023-05-17T11:25:42.702Z,48.08
2023-05-17T11:26:42.692Z,49.30
2023-05-17T11:27:42.689Z,48.69
2023-05-17T11:28:42.685Z,46.84
2023-05-17T11:29:42.655Z,48.34
2023-05-17T11:30:42.702Z,48.34
2023-05-17T11:31:42.634Z,48.34
2023-05-17T11:32:42.790Z,48.85
2023-05-17T11:33:42.694Z,49.25
2023-05-17T11:34:42.695Z,49.98
2023-05-17T11:35:42.593Z,51.09
2023-05-17T11:36:42.592Z,49.70
2023-05-17T11:37:42.584Z,50.38
2023-05-17T11:38:42.603Z,48.34
2023-05-17T11:39:42.548Z,49.84
2023-05-17T11:40:42.567Z,47.79
2023-05-17T11:41:42.548Z,46.40
2023-05-17T11:42:42.525Z,47.03
2023-05-17T11:43:42.523Z,47.53
2023-05-17T11:44:42.509Z,46.72
2023-05-17T11:45:42.497Z,46.42
2023-05-17T11:46:42.500Z,47.83
2023-05-17T11:47:42.525Z,47.63
2023-05-17T11:48:42.509Z,46.83
2023-05-17T11:49:42.452Z,48.62
2023-05-17T11:50:42.460Z,47.71
2023-05-17T11:51:42.443Z,48.22
2023-05-17T11:52:42.434Z,49.73
2023-05-17T11:53:42.418Z,50.54
2023-05-17T11:54:42.422Z,49.91
2023-05-17T11:55:42.400Z,50.01
2023-05-17T11:56:43.455Z,49.05
2023-05-17T11:57:42.376Z,50.82
2023-05-17T11:58:42.364Z,51.86
2023-05-17T11:59:42.379Z,51.70
2023-05-17T12:00:42.366Z,50.37
2023-05-17T12:01:42.342Z,52.97
2023-05-17T12:02:42.346Z,51.61
2023-05-17T12:03:42.323Z,49.96
2023-05-17T12:04:42.321Z,49.44
2023-05-17T12:05:42.287Z,47.44
2023-05-17T12:06:42.331Z,46.86
2023-05-17T12:07:42.288Z,46.48
2023-05-17T12:08:42.266Z,47.79
2023-05-17T12:09:42.249Z,48.10
2023-05-17T12:10:42.255Z,49.10
2023-05-17T12:11:42.233Z,48.27
2023-05-17T12:12:42.238Z,50.19
2023-05-17T12:13:42.212Z,49.18
2023-05-17T12:14:42.226Z,49.08
2023-05-17T12:15:42.202Z,48.32
2023-05-17T12:16:42.190Z,48.57
2023-05-17T12:17:42.251Z,48.41
2023-05-17T12:18:42.372Z,50.54
2023-05-17T12:19:42.506Z,53.19
2023-05-17T12:20:42.161Z,54.21
2023-05-17T12:21:42.117Z,53.37
2023-05-17T12:22:42.131Z,52.06
2023-05-17T12:23:42.108Z,50.82
2023-05-17T12:24:42.286Z,51.22
2023-05-17T12:25:42.083Z,51.45
2023-05-17T12:26:42.082Z,52.46
2023-05-17T12:27:42.070Z,51.78
2023-05-17T12:28:42.068Z,51.39
2023-05-17T12:29:42.099Z,51.50
2023-05-17T12:30:42.033Z,52.39
2023-05-17T12:31:42.049Z,51.93
2023-05-17T12:32:42.154Z,51.48
2023-05-17T12:33:42.147Z,50.04
2023-05-17T12:34:41.999Z,49.81
2023-05-17T12:35:41.998Z,49.18
2023-05-17T12:36:41.968Z,48.07
2023-05-17T12:37:41.955Z,49.89
2023-05-17T12:38:41.979Z,49.51
2023-05-17T12:39:41.936Z,49.51
2023-05-17T12:40:43.448Z,49.99
2023-05-17T12:41:41.928Z,50.70
2023-05-17T12:42:41.997Z,50.62
2023-05-17T12:43:41.902Z,49.33
2023-05-17T12:44:41.888Z,50.67
2023-05-17T12:45:41.871Z,49.48
2023-05-17T12:46:41.862Z,49.86
2023-05-17T12:47:41.874Z,51.86
2023-05-17T12:48:41.890Z,50.12
2023-05-17T12:49:41.832Z,47.99
2023-05-17T12:50:41.826Z,46.78
2023-05-17T12:51:41.822Z,49.33
2023-05-17T12:52:41.841Z,51.32
2023-05-17T12:53:41.793Z,50.59
2023-05-17T12:54:41.792Z,48.19
2023-05-17T12:55:41.774Z,49.05
2023-05-17T12:56:41.798Z,50.38
2023-05-17T12:57:41.769Z,51.32
2023-05-17T12:58:41.751Z,52.23
2023-05-17T12:59:41.837Z,51.93
2023-05-17T13:00:41.713Z,52.33
2023-05-17T13:01:41.716Z,52.08
2023-05-17T13:02:43.668Z,50.87
2023-05-17T13:03:42.105Z,50.04
2023-05-17T13:04:41.688Z,49.02
2023-05-17T13:05:41.686Z,50.04
2023-05-17T13:06:41.662Z,50.14
2023-05-17T13:07:41.688Z,48.52
2023-05-17T13:08:44.038Z,47.41
2023-05-17T13:09:41.624Z,47.41
2023-05-17T13:10:41.627Z,47.19
2023-05-17T13:11:41.629Z,47.06
2023-05-17T13:12:41.624Z,50.70
2023-05-17T13:13:41.624Z,51.76
2023-05-17T13:14:45.198Z,48.13
2023-05-17T13:15:41.581Z,46.94
2023-05-17T13:16:41.654Z,47.74
2023-05-17T13:17:41.567Z,49.94
2023-05-17T13:18:41.674Z,47.09
2023-05-17T13:19:41.795Z,47.92
2023-05-17T13:20:41.615Z,48.27
2023-05-17T13:21:41.537Z,49.63
2023-05-17T13:22:41.510Z,50.18
2023-05-17T13:23:41.493Z,51.62
2023-05-17T13:24:41.493Z,52.21
2023-05-17T13:25:41.572Z,50.67
2023-05-17T13:26:41.485Z,50.24
2023-05-17T13:27:41.447Z,49.41
2023-05-17T13:28:41.443Z,47.71
2023-05-17T13:29:41.501Z,50.21
2023-05-17T13:30:41.425Z,49.41
2023-05-17T13:31:41.452Z,47.79
2023-05-17T13:32:41.551Z,47.69
2023-05-17T13:33:41.485Z,48.10
2023-05-17T13:34:41.470Z,49.38
2023-05-17T13:35:41.367Z,46.53
2023-05-17T13:36:41.360Z,46.13
2023-05-17T13:37:41.355Z,45.14
2023-05-17T13:38:41.358Z,46.45
2023-05-17T13:39:41.668Z,47.19
2023-05-17T13:40:41.322Z,46.42
2023-05-17T13:41:41.309Z,46.95
2023-05-17T13:42:41.294Z,48.46
2023-05-17T13:43:41.303Z,46.67
2023-05-17T13:44:41.289Z,47.45
2023-05-17T13:45:41.274Z,47.67
2023-05-17T13:46:41.257Z,48.41
2023-05-17T13:47:41.318Z,49.11
2023-05-17T13:48:42.808Z,49.52
2023-05-17T13:49:41.247Z,49.50
2023-05-17T13:50:41.213Z,49.58
2023-05-17T13:51:41.225Z,48.54
2023-05-17T13:52:41.248Z,47.61
2023-05-17T13:53:41.218Z,47.61
2023-05-17T13:54:41.249Z,46.60
2023-05-17T13:55:41.155Z,46.20
2023-05-17T13:56:41.230Z,47.59
2023-05-17T13:57:41.205Z,47.67
2023-05-17T13:58:41.236Z,47.44
2023-05-17T13:59:41.132Z,46.94
2023-05-17T14:00:41.157Z,47.36
2023-05-17T14:01:41.112Z,48.10
2023-05-17T14:02:41.210Z,48.50
2023-05-17T14:03:41.112Z,49.93
2023-05-17T14:04:41.118Z,49.53
2023-05-17T14:05:41.096Z,47.61
2023-05-17T14:06:41.056Z,47.99
2023-05-17T14:07:41.062Z,48.10
2023-05-17T14:08:41.021Z,47.69
2023-05-17T14:09:41.023Z,47.59
2023-05-17T14:10:41.011Z,49.01
2023-05-17T14:11:41.065Z,47.39
2023-05-17T14:12:40.989Z,46.68
2023-05-17T14:13:40.981Z,45.91
2023-05-17T14:14:40.963Z,47.15
2023-05-17T14:15:40.965Z,48.06
2023-05-17T14:16:40.959Z,48.18
2023-05-17T14:17:41.011Z,48.18
2023-05-17T14:18:41.147Z,48.49
2023-05-17T14:19:41.096Z,48.08
2023-05-17T14:20:40.917Z,50.11
2023-05-17T14:21:40.881Z,50.16
2023-05-17T14:22:40.888Z,49.22
2023-05-17T14:23:40.875Z,47.61
2023-05-17T14:24:40.851Z,49.02
2023-05-17T14:25:40.855Z,47.20
2023-05-17T14:26:40.833Z,47.43
2023-05-17T14:27:40.844Z,48.22
2023-05-17T14:28:40.879Z,47.19
2023-05-17T14:29:40.808Z,47.39
2023-05-17T14:30:40.793Z,46.88
2023-05-17T14:31:40.801Z,48.22
2023-05-17T14:32:40.848Z,49.53
2023-05-17T14:33:40.797Z,48.70
2023-05-17T14:34:40.795Z,49.30
2023-05-17T14:35:40.743Z,48.60
2023-05-17T14:36:40.740Z,47.79
2023-05-17T14:37:40.720Z,47.39
2023-05-17T14:38:40.728Z,47.49
2023-05-17T14:39:40.696Z,47.97
2023-05-17T14:40:40.708Z,47.39
2023-05-17T14:41:41.554Z,48.17
2023-05-17T14:42:40.672Z,52.79
2023-05-17T14:43:40.651Z,51.84
2023-05-17T14:44:40.664Z,45.40
2023-05-17T14:45:40.623Z,45.90
2023-05-17T14:46:40.660Z,46.36
2023-05-17T14:47:40.630Z,46.98
2023-05-17T14:48:40.644Z,48.11
2023-05-17T14:49:40.605Z,47.33
2023-05-17T14:50:40.591Z,47.27
2023-05-17T14:51:40.579Z,47.07
2023-05-17T14:52:40.577Z,47.39
2023-05-17T14:53:40.565Z,49.22
2023-05-17T14:54:40.559Z,48.13
2023-05-17T14:55:40.537Z,49.22
2023-05-17T14:56:40.525Z,48.08
2023-05-17T14:57:40.503Z,49.78
2023-05-17T14:58:40.597Z,50.06
2023-05-17T14:59:40.734Z,49.66
2023-05-17T15:00:40.467Z,47.23
2023-05-17T15:01:40.497Z,48.87
2023-05-17T15:02:40.484Z,49.55
2023-05-17T15:03:40.518Z,49.66
2023-05-17T15:04:40.556Z,49.13
2023-05-17T15:05:40.410Z,47.51
2023-05-17T15:06:40.410Z,48.03
2023-05-17T15:07:40.424Z,48.03
2023-05-17T15:08:40.395Z,47.83
2023-05-17T15:09:40.372Z,48.67
2023-05-17T15:10:40.376Z,48.08
2023-05-17T15:11:40.374Z,48.06
2023-05-17T15:12:40.366Z,49.38
2023-05-17T15:13:40.333Z,48.95
2023-05-17T15:14:40.357Z,49.38
2023-05-17T15:15:40.320Z,51.22
2023-05-17T15:16:40.342Z,50.99
2023-05-17T15:17:40.393Z,49.48
2023-05-17T15:18:40.321Z,49.48
2023-05-17T15:19:40.377Z,48.97
2023-05-17T15:20:40.268Z,48.54
2023-05-17T15:21:40.244Z,46.64
2023-05-17T15:22:40.262Z,45.73
2023-05-17T15:23:40.234Z,46.24
2023-05-17T15:24:40.227Z,45.94
2023-05-17T15:25:40.206Z,45.73
2023-05-17T15:26:40.214Z,46.75
2023-05-17T15:27:40.183Z,47.55
2023-05-17T15:28:40.188Z,48.26
2023-05-17T15:29:40.162Z,47.66
2023-05-17T15:30:40.185Z,48.06
2023-05-17T15:31:40.152Z,48.87
2023-05-17T15:32:40.334Z,49.48
2023-05-17T15:33:40.135Z,50.38
2023-05-17T15:34:40.118Z,50.38
2023-05-17T15:35:40.117Z,50.49
2023-05-17T15:36:40.098Z,48.39
2023-05-17T15:37:40.093Z,49.50
2023-05-17T15:38:40.097Z,49.10
2023-05-17T15:39:40.055Z,48.90
2023-05-17T15:40:40.291Z,49.30
2023-05-17T15:41:40.069Z,48.99
2023-05-17T15:42:40.092Z,49.90
2023-05-17T15:43:40.049Z,48.71
2023-05-17T15:44:40.068Z,49.52
2023-05-17T15:45:39.996Z,48.91
2023-05-17T15:46:39.994Z,48.71
2023-05-17T15:47:43.515Z,48.71
2023-05-17T15:48:40.027Z,48.71
2023-05-17T15:49:39.997Z,48.71
2023-05-17T15:50:39.952Z,48.51
2023-05-17T15:51:39.933Z,47.19
2023-05-17T15:52:39.928Z,48.00
2023-05-17T15:53:39.908Z,47.50
2023-05-17T15:54:39.897Z,47.47
2023-05-17T15:55:39.886Z,47.30
2023-05-17T15:56:39.881Z,47.30
2023-05-17T15:57:39.854Z,48.61
2023-05-17T15:58:39.868Z,48.71
2023-05-17T15:59:39.851Z,47.90
2023-05-17T16:00:39.840Z,47.30
2023-05-17T16:01:39.822Z,49.02
2023-05-17T16:02:39.997Z,48.61
2023-05-17T16:03:39.843Z,48.71
2023-05-17T16:04:39.853Z,49.11
2023-05-17T16:05:39.780Z,49.32
2023-05-17T16:06:39.818Z,49.02
2023-05-17T16:07:39.765Z,49.32
2023-05-17T16:08:39.759Z,50.34
2023-05-17T16:09:39.731Z,50.54
2023-05-17T16:10:39.718Z,50.26
2023-05-17T16:11:39.711Z,48.74
2023-05-17T16:12:39.745Z,49.14
2023-05-17T16:13:39.687Z,49.85
2023-05-17T16:14:39.689Z,50.15
2023-05-17T16:15:39.721Z,50.66
2023-05-17T16:16:39.656Z,50.46
2023-05-17T16:17:39.717Z,49.55
2023-05-17T16:18:39.843Z,50.26
2023-05-17T16:19:39.688Z,49.75
2023-05-17T16:20:39.633Z,49.34
2023-05-17T16:21:39.602Z,49.22
2023-05-17T16:22:39.614Z,48.63
2023-05-17T16:23:39.575Z,48.43
2023-05-17T16:24:39.572Z,48.74
2023-05-17T16:25:39.576Z,48.83
2023-05-17T16:26:39.589Z,48.94
2023-05-17T16:27:39.554Z,49.95
2023-05-17T16:28:39.556Z,50.76
2023-05-17T16:29:39.595Z,51.67
2023-05-17T16:30:39.521Z,49.14
2023-05-17T16:31:39.502Z,49.57
2023-05-17T16:32:39.781Z,50.28
2023-05-17T16:33:39.506Z,48.86
2023-05-17T16:34:39.491Z,49.87
2023-05-17T16:35:39.462Z,49.37
2023-05-17T16:36:39.452Z,49.87
2023-05-17T16:37:39.431Z,49.27
2023-05-17T16:38:39.427Z,48.25
2023-05-17T16:39:39.408Z,49.77
2023-05-17T16:40:39.408Z,50.18
2023-05-17T16:41:39.418Z,49.27
2023-05-17T16:42:39.385Z,49.57
2023-05-17T16:43:39.369Z,51.39
2023-05-17T16:44:39.360Z,51.70
2023-05-17T16:45:39.393Z,50.68
2023-05-17T16:46:39.412Z,51.09
2023-05-17T16:47:39.396Z,51.50
2023-05-17T16:48:39.350Z,51.80
2023-05-17T16:49:39.297Z,51.60
2023-05-17T16:50:39.304Z,51.90
2023-05-17T16:51:39.278Z,51.39
2023-05-17T16:52:39.280Z,52.11
2023-05-17T16:53:39.269Z,51.80
2023-05-17T16:54:39.311Z,52.92
2023-05-17T16:55:39.251Z,51.50
2023-05-17T16:56:39.229Z,51.19
2023-05-17T16:57:39.201Z,49.16
2023-05-17T16:58:39.205Z,50.28
2023-05-17T16:59:39.203Z,50.99
2023-05-17T17:00:39.180Z,50.89
2023-05-17T17:01:39.179Z,50.99
2023-05-17T17:02:39.199Z,50.48
2023-05-17T17:03:39.302Z,50.18
2023-05-17T17:04:39.155Z,49.77
2023-05-17T17:05:39.121Z,50.38
2023-05-17T17:06:39.119Z,50.48
2023-05-17T17:07:39.106Z,50.18
2023-05-17T17:08:39.101Z,50.79
2023-05-17T17:09:39.098Z,50.38
2023-05-17T17:10:39.069Z,51.62
2023-05-17T17:11:39.053Z,51.72
2023-05-17T17:12:39.045Z,52.03
2023-05-17T17:13:39.041Z,52.84
2023-05-17T17:14:39.027Z,52.94
2023-05-17T17:15:39.028Z,53.25
2023-05-17T17:16:39.127Z,53.25
2023-05-17T17:17:39.054Z,50.60
2023-05-17T17:18:39.024Z,50.40
2023-05-17T17:19:38.983Z,51.82
2023-05-17T17:20:38.972Z,51.80
2023-05-17T17:21:38.962Z,51.72
2023-05-17T17:22:38.947Z,51.52
2023-05-17T17:23:38.943Z,51.32
2023-05-17T17:24:38.918Z,50.71
2023-05-17T17:25:38.914Z,50.40